createdAt,value
2023-01-23T00:01:45.343Z,2.70
2023-01-23T00:04:15.709Z,2.70
2023-01-23T00:06:44.473Z,2.60
2023-01-23T00:09:13.026Z,2.60
2023-01-23T00:11:41.653Z,2.60
2023-01-23T00:14:11.807Z,2.70
2023-01-23T00:16:40.843Z,2.60
2023-01-23T00:19:11.778Z,2.60
2023-01-23T00:21:41.719Z,2.60
2023-01-23T00:24:12.693Z,2.60
2023-01-23T00:26:41.524Z,2.60
2023-01-23T00:29:10.460Z,2.60
2023-01-23T00:31:40.167Z,2.60
2023-01-23T00:34:14.163Z,2.60
2023-01-23T00:36:45.739Z,2.60
2023-01-23T00:39:18.417Z,2.60
2023-01-23T00:41:47.716Z,2.60
2023-01-23T00:44:16.676Z,2.60
2023-01-23T00:46:45.486Z,2.60
2023-01-23T00:49:14.825Z,2.60
2023-01-23T00:51:47.305Z,2.70
2023-01-23T00:54:15.980Z,2.60
2023-01-23T00:56:44.839Z,2.60
2023-01-23T00:59:13.452Z,2.60
2023-01-23T01:01:42.116Z,2.60
2023-01-23T01:04:10.928Z,2.60
2023-01-23T01:06:39.560Z,2.60
2023-01-23T01:09:09.618Z,2.60
2023-01-23T01:11:39.929Z,2.60
2023-01-23T01:14:09.615Z,2.70
2023-01-23T01:16:40.991Z,2.70
2023-01-23T01:19:09.594Z,2.60
2023-01-23T01:21:38.953Z,2.60
2023-01-23T01:24:10.064Z,2.60
2023-01-23T01:26:38.648Z,2.60
2023-01-23T01:29:07.360Z,2.60
2023-01-23T01:31:36.519Z,2.60
2023-01-23T01:34:05.223Z,2.60
2023-01-23T01:36:33.754Z,2.60
2023-01-23T01:39:02.364Z,2.60
2023-01-23T01:41:32.696Z,2.60
2023-01-23T01:44:01.292Z,2.50
2023-01-23T01:46:32.346Z,2.60
2023-01-23T01:49:10.098Z,2.60
2023-01-23T01:51:45.211Z,2.60
2023-01-23T01:54:22.569Z,2.60
2023-01-23T01:56:56.670Z,2.60
2023-01-23T01:59:29.035Z,2.60
2023-01-23T02:02:05.160Z,2.60
2023-01-23T02:04:34.961Z,2.60
2023-01-23T02:07:09.236Z,2.60
2023-01-23T02:09:38.679Z,2.60
2023-01-23T02:12:09.501Z,2.60
2023-01-23T02:14:38.433Z,2.60
2023-01-23T02:17:07.035Z,2.60
2023-01-23T02:19:46.750Z,2.60
2023-01-23T02:22:27.202Z,2.60
2023-01-23T02:25:04.395Z,2.60
2023-01-23T02:27:34.447Z,2.60
2023-01-23T02:30:06.176Z,2.70
2023-01-23T02:32:35.943Z,2.70
2023-01-23T02:35:11.675Z,2.70
2023-01-23T02:37:43.700Z,2.70
2023-01-23T02:40:13.509Z,2.70
2023-01-23T02:42:46.236Z,2.70
2023-01-23T02:45:17.765Z,2.70
2023-01-23T02:47:47.643Z,2.70
2023-01-23T02:50:17.932Z,2.70
2023-01-23T02:52:47.403Z,2.70
2023-01-23T02:55:16.208Z,2.70
2023-01-23T02:57:46.364Z,2.70
2023-01-23T03:00:20.468Z,2.70
2023-01-23T03:02:51.396Z,2.70
2023-01-23T03:05:23.315Z,2.70
2023-01-23T03:07:53.872Z,2.70
2023-01-23T03:10:24.837Z,2.70
2023-01-23T03:12:54.848Z,2.80
2023-01-23T03:15:23.781Z,2.70
2023-01-23T03:17:52.912Z,2.70
2023-01-23T03:20:23.193Z,2.60
2023-01-23T03:22:51.976Z,2.70
2023-01-23T03:25:20.736Z,2.70
2023-01-23T03:27:50.220Z,2.70
2023-01-23T03:30:22.263Z,2.70
2023-01-23T03:32:54.107Z,2.70
2023-01-23T03:35:22.885Z,2.70
2023-01-23T03:37:54.878Z,2.70
2023-01-23T03:40:43.753Z,2.70
2023-01-23T03:43:16.157Z,2.70
2023-01-23T03:45:51.568Z,2.80
2023-01-23T03:48:20.285Z,2.80
2023-01-23T03:50:49.212Z,2.70
2023-01-23T03:53:19.090Z,2.70
2023-01-23T03:55:48.520Z,2.70
2023-01-23T03:58:18.396Z,2.90
2023-01-23T04:00:48.320Z,2.80
2023-01-23T04:03:18.497Z,2.80
2023-01-23T04:05:47.096Z,2.80
2023-01-23T04:08:17.624Z,2.80
2023-01-23T04:10:46.377Z,2.80
2023-01-23T04:13:18.186Z,2.80
2023-01-23T04:15:47.036Z,2.80
2023-01-23T04:18:18.564Z,2.80
2023-01-23T04:20:47.270Z,2.80
2023-01-23T04:23:15.817Z,2.80
2023-01-23T04:25:44.662Z,2.70
2023-01-23T04:28:16.091Z,2.80
2023-01-23T04:30:46.246Z,2.70
2023-01-23T04:33:23.506Z,2.80
2023-01-23T04:35:55.200Z,2.80
2023-01-23T04:38:25.177Z,2.80
2023-01-23T04:40:54.579Z,2.70
2023-01-23T04:43:23.665Z,2.80
2023-01-23T04:45:54.953Z,2.80
2023-01-23T04:48:43.969Z,2.80
2023-01-23T04:51:13.986Z,2.80
2023-01-23T04:53:42.668Z,2.80
2023-01-23T04:56:11.476Z,2.80
2023-01-23T04:58:40.100Z,2.80
2023-01-23T05:01:13.342Z,2.70
2023-01-23T05:03:43.332Z,2.80
2023-01-23T05:06:12.320Z,2.80
2023-01-23T05:08:41.170Z,2.80
2023-01-23T05:11:28.568Z,2.80
2023-01-23T05:13:58.013Z,2.70
2023-01-23T05:16:26.737Z,2.80
2023-01-23T05:19:17.498Z,2.80
2023-01-23T05:21:46.807Z,2.70
2023-01-23T05:24:21.750Z,2.80
2023-01-23T05:26:51.541Z,2.80
2023-01-23T05:29:21.576Z,2.70
2023-01-23T05:31:58.972Z,2.80
2023-01-23T05:34:49.274Z,2.70
2023-01-23T05:37:25.497Z,2.80
2023-01-23T05:39:57.848Z,2.80
2023-01-23T05:42:29.500Z,2.80
2023-01-23T05:45:07.895Z,2.80
2023-01-23T05:47:43.122Z,2.70
2023-01-23T05:50:16.977Z,2.80
2023-01-23T05:52:46.761Z,2.90
2023-01-23T05:55:15.526Z,2.80
2023-01-23T05:57:47.300Z,2.80
2023-01-23T06:00:35.144Z,2.80
2023-01-23T06:03:26.441Z,2.80
2023-01-23T06:06:08.168Z,2.70
2023-01-23T06:08:37.196Z,2.70
2023-01-23T06:11:06.347Z,2.70
2023-01-23T06:13:35.897Z,2.70
2023-01-23T06:16:06.165Z,2.80
2023-01-23T06:18:35.017Z,2.80
2023-01-23T06:21:03.765Z,2.80
2023-01-23T06:23:33.831Z,2.80
2023-01-23T06:26:03.572Z,2.70
2023-01-23T06:28:33.359Z,2.80
2023-01-23T06:31:04.053Z,2.70
2023-01-23T06:33:41.072Z,2.80
2023-01-23T06:36:13.004Z,2.80
2023-01-23T06:38:43.076Z,2.80
2023-01-23T06:41:14.127Z,2.70
2023-01-23T06:43:50.172Z,2.70
2023-01-23T06:46:23.924Z,2.70
2023-01-23T06:48:55.301Z,2.70
2023-01-23T06:51:24.022Z,2.70
2023-01-23T06:53:54.428Z,2.80
2023-01-23T06:56:24.193Z,2.80
2023-01-23T06:58:54.149Z,2.60
2023-01-23T07:01:32.836Z,2.80
2023-01-23T07:04:21.746Z,2.80
2023-01-23T07:06:52.606Z,2.80
2023-01-23T07:09:23.784Z,2.90
2023-01-23T07:12:05.129Z,2.80
2023-01-23T07:14:34.040Z,2.80
2023-01-23T07:17:02.787Z,2.80
2023-01-23T07:19:32.505Z,2.80
2023-01-23T07:22:02.576Z,2.80
2023-01-23T07:24:33.032Z,2.80
2023-01-23T07:27:01.681Z,2.80
2023-01-23T07:29:30.310Z,2.80
2023-01-23T07:32:00.938Z,2.80
2023-01-23T07:34:29.749Z,2.80
2023-01-23T07:36:58.602Z,2.80
2023-01-23T07:39:27.456Z,2.80
2023-01-23T07:41:57.423Z,2.80
2023-01-23T07:44:30.028Z,2.80
2023-01-23T07:46:58.875Z,2.90
2023-01-23T07:49:27.397Z,2.80
2023-01-23T07:51:55.927Z,2.90
2023-01-23T07:54:24.708Z,2.80
2023-01-23T07:56:53.457Z,2.90
2023-01-23T07:59:23.369Z,2.90
2023-01-23T08:01:52.711Z,2.90
2023-01-23T08:04:21.837Z,2.90
2023-01-23T08:06:50.528Z,3.00
2023-01-23T08:09:19.219Z,3.00
2023-01-23T08:11:47.971Z,3.00
2023-01-23T08:14:16.666Z,3.10
2023-01-23T08:16:50.767Z,3.00
2023-01-23T08:19:20.195Z,3.10
2023-01-23T08:21:49.009Z,3.10
2023-01-23T08:24:20.578Z,3.10
2023-01-23T08:26:49.210Z,3.20
2023-01-23T08:29:21.225Z,3.20
2023-01-23T08:31:54.991Z,3.20
2023-01-23T08:34:24.392Z,3.30
2023-01-23T08:36:53.190Z,3.30
2023-01-23T08:39:21.931Z,3.30
2023-01-23T08:41:50.878Z,3.40
2023-01-23T08:44:19.619Z,3.40
2023-01-23T08:46:49.905Z,3.40
2023-01-23T08:49:20.174Z,3.50
2023-01-23T08:51:49.847Z,3.50
2023-01-23T08:54:18.625Z,3.60
2023-01-23T08:56:47.432Z,3.60
2023-01-23T08:59:16.260Z,3.60
2023-01-23T09:01:46.294Z,3.60
2023-01-23T09:04:17.616Z,3.70
2023-01-23T09:06:46.406Z,3.70
2023-01-23T09:09:15.077Z,3.80
2023-01-23T09:11:43.618Z,3.80
2023-01-23T09:14:12.326Z,3.90
2023-01-23T09:16:41.569Z,3.90
2023-01-23T09:19:11.955Z,3.90
2023-01-23T09:21:41.913Z,3.90
2023-01-23T09:24:10.542Z,4.00
2023-01-23T09:26:39.207Z,4.00
2023-01-23T09:29:07.748Z,4.10
2023-01-23T09:31:36.746Z,4.10
2023-01-23T09:34:05.811Z,4.20
2023-01-23T09:36:42.845Z,4.20
2023-01-23T09:39:13.405Z,4.30
2023-01-23T09:41:42.734Z,4.40
2023-01-23T09:44:16.645Z,4.40
2023-01-23T09:46:50.106Z,4.50
2023-01-23T09:49:26.828Z,4.60
2023-01-23T09:51:59.974Z,4.60
2023-01-23T09:54:39.717Z,4.60
2023-01-23T09:57:15.133Z,4.70
2023-01-23T10:00:00.503Z,4.70
2023-01-23T10:02:30.109Z,4.80
2023-01-23T10:05:02.473Z,4.80
2023-01-23T10:07:53.286Z,4.70
2023-01-23T10:10:45.388Z,4.80
2023-01-23T10:13:17.468Z,4.80
2023-01-23T10:16:11.373Z,4.80
2023-01-23T10:18:48.987Z,4.80
2023-01-23T10:21:29.809Z,4.90
2023-01-23T10:24:05.078Z,5.00
2023-01-23T10:26:39.771Z,5.10
2023-01-23T10:29:16.550Z,5.10
2023-01-23T10:31:47.112Z,5.20
2023-01-23T10:34:20.976Z,5.30
2023-01-23T10:37:03.121Z,5.30
2023-01-23T10:39:41.128Z,5.30
2023-01-23T10:42:12.995Z,5.40
2023-01-23T10:44:41.496Z,5.40
2023-01-23T10:47:21.007Z,5.40
2023-01-23T10:49:49.731Z,5.50
2023-01-23T10:52:34.620Z,5.50
2023-01-23T10:55:04.462Z,5.50
2023-01-23T10:57:46.575Z,5.60
2023-01-23T11:00:25.722Z,5.60
2023-01-23T11:02:54.617Z,5.60
2023-01-23T11:05:50.707Z,5.70
2023-01-23T11:08:27.158Z,5.80
2023-01-23T11:10:59.508Z,5.80
2023-01-23T11:13:31.146Z,5.80
2023-01-23T11:15:59.979Z,5.90
2023-01-23T11:18:35.034Z,5.90
2023-01-23T11:21:03.792Z,5.90
2023-01-23T11:23:34.875Z,5.80
2023-01-23T11:26:04.121Z,5.80
2023-01-23T11:28:47.052Z,5.60
2023-01-23T11:31:18.706Z,5.50
2023-01-23T11:33:53.840Z,5.50
2023-01-23T11:36:48.464Z,5.40
2023-01-23T11:39:27.500Z,5.40
2023-01-23T11:41:56.123Z,5.40
2023-01-23T11:44:28.253Z,5.50
2023-01-23T11:47:24.013Z,5.50
2023-01-23T11:50:23.592Z,5.60
2023-01-23T11:53:00.714Z,5.60
2023-01-23T11:55:42.003Z,5.60
2023-01-23T11:58:23.800Z,5.70
2023-01-23T12:01:06.677Z,5.70
2023-01-23T12:03:53.801Z,5.70
2023-01-23T12:06:40.186Z,5.80
2023-01-23T12:09:14.579Z,5.80
2023-01-23T12:11:58.598Z,5.80
2023-01-23T12:14:36.533Z,5.80
2023-01-23T12:17:24.077Z,5.80
2023-01-23T12:20:21.047Z,5.80
2023-01-23T12:23:03.345Z,5.90
2023-01-23T12:25:36.343Z,6.00
2023-01-23T12:28:20.061Z,6.20
2023-01-23T12:31:04.011Z,6.00
2023-01-23T12:33:54.797Z,6.10
2023-01-23T12:36:59.583Z,6.20
2023-01-23T12:39:50.109Z,6.20
2023-01-23T12:42:25.203Z,6.30
2023-01-23T12:45:00.263Z,6.30
2023-01-23T12:47:34.213Z,6.30
2023-01-23T12:50:10.454Z,6.40
2023-01-23T12:52:43.084Z,6.40
2023-01-23T12:55:21.347Z,6.40
2023-01-23T12:58:07.106Z,6.40
2023-01-23T13:00:50.635Z,6.50
2023-01-23T13:03:47.225Z,6.50
2023-01-23T13:06:40.981Z,6.40
2023-01-23T13:09:18.418Z,6.40
2023-01-23T13:11:57.004Z,6.40
2023-01-23T13:15:00.687Z,6.40
2023-01-23T13:17:36.769Z,6.40
2023-01-23T13:20:43.796Z,6.30
2023-01-23T13:23:25.559Z,6.30
2023-01-23T13:26:28.736Z,6.20
2023-01-23T13:29:01.494Z,6.10
2023-01-23T13:31:41.136Z,6.00
2023-01-23T13:34:38.219Z,5.90
2023-01-23T13:37:51.164Z,5.90
2023-01-23T13:40:30.231Z,5.90
2023-01-23T13:42:58.690Z,5.90
2023-01-23T13:45:31.948Z,5.90
2023-01-23T14:20:39.664Z,5.30
2023-01-23T14:23:28.436Z,5.30
2023-01-23T14:25:57.646Z,5.30
2023-01-23T14:28:27.390Z,5.20
2023-01-23T14:31:02.878Z,5.20
2023-01-23T14:33:41.034Z,5.20
2023-01-23T14:36:17.547Z,5.40
2023-01-23T14:38:48.208Z,5.30
2023-01-23T14:41:19.071Z,5.20
2023-01-23T14:43:47.983Z,5.10
2023-01-23T14:46:20.598Z,5.10
2023-01-23T14:48:52.857Z,5.10
2023-01-23T14:51:24.013Z,5.10
2023-01-23T14:53:56.960Z,5.10
2023-01-23T14:56:29.591Z,5.10
2023-01-23T14:59:04.148Z,5.10
2023-01-23T15:01:35.918Z,5.20
2023-01-23T15:04:06.432Z,5.20
2023-01-23T15:06:36.732Z,5.10
2023-01-23T15:09:15.403Z,5.10
2023-01-23T15:11:44.822Z,5.10
2023-01-23T15:14:25.164Z,5.10
2023-01-23T15:17:02.808Z,5.10
2023-01-23T15:19:31.912Z,5.10
2023-01-23T15:22:09.189Z,5.10
2023-01-23T15:24:37.701Z,5.10
2023-01-23T15:27:24.304Z,5.10
2023-01-23T15:29:53.191Z,5.10
2023-01-23T15:32:27.198Z,5.10
2023-01-23T15:34:57.639Z,5.10
2023-01-23T15:37:27.846Z,5.10
2023-01-23T15:40:00.756Z,5.00
2023-01-23T15:42:31.776Z,5.00
2023-01-23T15:45:01.996Z,5.00
2023-01-23T15:47:33.322Z,5.00
2023-01-23T15:50:02.928Z,5.00
2023-01-23T15:52:45.888Z,5.00
2023-01-23T15:55:15.513Z,5.00
2023-01-23T15:57:44.724Z,4.90
2023-01-23T16:00:17.666Z,4.90
2023-01-23T16:02:56.330Z,4.90
2023-01-23T16:05:27.444Z,4.90
2023-01-23T16:07:57.486Z,4.90
2023-01-23T16:10:28.787Z,4.80
2023-01-23T16:12:59.027Z,4.80
2023-01-23T16:15:29.736Z,4.70
2023-01-23T16:18:00.628Z,4.60
2023-01-23T16:20:31.527Z,4.50
2023-01-23T16:23:14.367Z,4.40
2023-01-23T16:25:45.930Z,4.20
2023-01-23T16:28:16.634Z,4.10
2023-01-23T16:30:48.809Z,4.00
2023-01-23T16:33:20.232Z,3.80
2023-01-23T16:35:50.534Z,3.70
2023-01-23T16:38:22.980Z,3.60
2023-01-23T16:40:53.405Z,3.60
2023-01-23T16:43:23.132Z,3.60
2023-01-23T16:45:56.154Z,3.60
2023-01-23T16:48:30.196Z,3.60
2023-01-23T16:51:01.989Z,3.60
2023-01-23T16:53:34.163Z,3.60
2023-01-23T16:56:04.510Z,3.60
2023-01-23T16:58:38.770Z,3.70
2023-01-23T17:01:12.419Z,3.80
2023-01-23T17:03:43.041Z,3.80
2023-01-23T17:06:13.877Z,3.90
2023-01-23T17:08:42.596Z,3.90
2023-01-23T17:11:17.366Z,4.00
2023-01-23T17:13:46.086Z,4.00
2023-01-23T17:16:26.427Z,4.00
2023-01-23T17:19:00.735Z,4.10
2023-01-23T17:21:34.694Z,4.10
2023-01-23T17:24:03.444Z,4.10
2023-01-23T17:26:32.074Z,4.10
2023-01-23T17:29:00.850Z,4.20
2023-01-23T17:31:32.485Z,4.30
2023-01-23T17:34:05.156Z,4.30
2023-01-23T17:36:34.219Z,4.30
2023-01-23T17:39:03.331Z,4.30
2023-01-23T17:41:33.131Z,4.30
2023-01-23T17:44:01.837Z,4.30
2023-01-23T17:46:36.700Z,4.30
2023-01-23T17:49:28.292Z,4.30
2023-01-23T17:51:58.234Z,4.30
2023-01-23T17:54:27.485Z,4.30
2023-01-23T17:56:56.272Z,4.30
2023-01-23T17:59:24.821Z,4.20
2023-01-23T18:01:53.725Z,4.30
2023-01-23T18:04:24.129Z,4.30
2023-01-23T18:06:52.758Z,4.30
2023-01-23T18:09:21.296Z,4.30
2023-01-23T18:11:52.449Z,4.30
2023-01-23T18:14:35.834Z,4.30
2023-01-23T18:17:17.080Z,4.30
2023-01-23T18:19:47.803Z,4.30
2023-01-23T18:22:17.336Z,4.30
2023-01-23T18:24:46.730Z,4.30
2023-01-23T18:27:24.678Z,4.40
2023-01-23T18:30:08.903Z,4.40
2023-01-23T18:33:07.931Z,4.40
2023-01-23T18:35:57.385Z,4.40
2023-01-23T18:38:37.525Z,4.40
2023-01-23T18:41:13.977Z,4.50
2023-01-23T18:43:45.681Z,4.40
2023-01-23T18:46:16.846Z,4.40
2023-01-23T18:48:47.868Z,4.30
2023-01-23T18:51:32.751Z,4.40
2023-01-23T18:54:13.309Z,4.30
2023-01-23T18:56:50.607Z,4.30
2023-01-23T18:59:27.227Z,4.30
2023-01-23T19:02:02.297Z,4.30
2023-01-23T19:04:34.651Z,4.30
2023-01-23T19:07:09.560Z,4.30
2023-01-23T19:09:40.646Z,4.30
2023-01-23T19:12:25.462Z,4.30
2023-01-23T19:15:09.610Z,4.30
2023-01-23T19:17:47.288Z,4.30
2023-01-23T19:20:23.388Z,4.30
2023-01-23T19:23:02.715Z,4.40
2023-01-23T19:25:31.663Z,4.30
2023-01-23T19:28:01.571Z,4.30
2023-01-23T19:30:31.071Z,4.30
2023-01-23T19:32:59.654Z,4.30
2023-01-23T19:35:28.593Z,4.30
2023-01-23T19:38:00.288Z,4.30
2023-01-23T19:40:29.136Z,4.30
2023-01-23T19:43:13.268Z,4.30
2023-01-23T19:45:42.697Z,4.30
2023-01-23T19:48:11.822Z,4.30
2023-01-23T19:50:40.823Z,4.30
2023-01-23T19:53:13.223Z,4.30
2023-01-23T19:55:42.325Z,4.30
2023-01-23T19:58:11.097Z,4.30
2023-01-23T20:00:39.646Z,4.30
2023-01-23T20:03:08.322Z,4.30
2023-01-23T20:05:36.912Z,4.30
2023-01-23T20:08:05.930Z,4.30
2023-01-23T20:10:36.220Z,4.30
2023-01-23T20:13:04.914Z,4.30
2023-01-23T20:15:33.771Z,4.20
2023-01-23T20:18:02.501Z,4.30
2023-01-23T20:20:31.253Z,4.30
2023-01-23T20:22:59.795Z,4.30
2023-01-23T20:25:28.500Z,4.30
2023-01-23T20:27:58.400Z,4.30
2023-01-23T20:30:27.126Z,4.40
2023-01-23T20:35:30.402Z,4.30
2023-01-23T20:37:59.081Z,4.30
2023-01-23T20:40:28.042Z,4.30
2023-01-23T20:42:57.925Z,4.30
2023-01-23T20:45:26.682Z,4.30
2023-01-23T20:47:57.881Z,4.30
2023-01-23T20:50:26.543Z,4.30
2023-01-23T20:53:12.437Z,4.30
2023-01-23T20:55:40.998Z,4.30
2023-01-23T20:58:28.666Z,4.30
2023-01-23T21:00:57.403Z,4.30
2023-01-23T21:03:25.970Z,4.30
2023-01-23T21:05:54.608Z,4.30
2023-01-23T21:08:23.470Z,4.20
2023-01-23T21:10:53.199Z,4.20
2023-01-23T21:13:23.299Z,4.20
2023-01-23T21:15:58.751Z,4.20
2023-01-23T21:18:27.919Z,4.20
2023-01-23T21:20:56.902Z,4.40
2023-01-23T21:23:25.666Z,4.20
2023-01-23T21:25:57.852Z,4.20
2023-01-23T21:28:28.391Z,4.20
2023-01-23T21:30:57.111Z,4.20
2023-01-23T21:33:26.241Z,4.20
2023-01-23T21:35:56.316Z,4.20
2023-01-23T21:38:24.861Z,4.20
2023-01-23T21:40:54.948Z,4.20
2023-01-23T21:43:23.600Z,4.20
2023-01-23T21:45:54.080Z,4.20
2023-01-23T21:48:22.759Z,4.20
2023-01-23T21:50:51.532Z,4.20
2023-01-23T21:53:20.327Z,4.20
2023-01-23T21:55:53.021Z,4.20
2023-01-23T21:58:21.635Z,4.20
2023-01-23T22:01:07.638Z,4.10
2023-01-23T22:03:37.744Z,4.20
2023-01-23T22:06:06.670Z,4.10
2023-01-23T22:08:35.604Z,4.10
2023-01-23T22:11:05.883Z,4.10
2023-01-23T22:13:35.161Z,4.10
2023-01-23T22:16:04.597Z,4.10
2023-01-23T22:18:34.116Z,4.10
2023-01-23T22:21:06.066Z,4.10
2023-01-23T22:23:35.085Z,4.10
2023-01-23T22:26:07.890Z,4.10
2023-01-23T22:28:37.401Z,4.10
2023-01-23T22:31:07.840Z,4.10
2023-01-23T22:33:40.870Z,4.10
2023-01-23T22:36:15.403Z,4.10
2023-01-23T22:38:44.885Z,4.10
2023-01-23T22:41:15.224Z,4.10
2023-01-23T22:43:44.063Z,4.10
2023-01-23T22:46:15.398Z,4.10
2023-01-23T22:48:44.162Z,4.10
2023-01-23T22:51:17.927Z,4.10
2023-01-23T22:53:46.693Z,4.10
2023-01-23T22:56:15.833Z,4.10
2023-01-23T22:58:47.075Z,4.10
2023-01-23T23:01:16.541Z,4.10
2023-01-23T23:03:46.392Z,4.10
2023-01-23T23:06:17.972Z,4.10
2023-01-23T23:08:48.466Z,4.00
2023-01-23T23:11:20.249Z,4.10
2023-01-23T23:13:51.433Z,4.10
2023-01-23T23:16:22.056Z,4.00
2023-01-23T23:18:52.482Z,4.00
2023-01-23T23:21:25.037Z,4.00
2023-01-23T23:23:56.835Z,4.00
2023-01-23T23:26:26.679Z,4.00
2023-01-23T23:28:57.184Z,4.00
2023-01-23T23:31:29.087Z,4.00
2023-01-23T23:33:58.044Z,3.90
2023-01-23T23:36:28.316Z,4.00
2023-01-23T23:38:57.284Z,4.00
2023-01-23T23:41:26.455Z,4.00
2023-01-23T23:43:55.292Z,4.00
2023-01-23T23:46:24.161Z,4.00
2023-01-23T23:48:52.771Z,4.00
2023-01-23T23:51:22.918Z,4.00
2023-01-23T23:53:52.970Z,4.00
2023-01-23T23:56:24.622Z,4.00
2023-01-23T23:58:53.473Z,4.00
